Time;durP1;ratioP1;P1;durP2;ratioP2;P2;SDS_P1;SDS_P2;PMS_P1;PMS_P2;Temp;Humidity;BMP_temperature;BMP_pressure;BME280_temperature;BME280_humidity;BME280_pressure;Samples;Min_cycle;Max_cycle;Signal;HPM_P1;HPM_P2
2023/10/03 00:02:05;;;;;;;70.65;35.30;;;18.30;99.90;;;;;;4899416;29;20299;-71
2023/10/03 00:04:31;;;;;;;70.18;35.97;;;18.20;99.90;;;;;;4899544;29;20201;-71
2023/10/03 00:06:57;;;;;;;73.05;35.95;;;18.30;99.90;;;;;;4897073;29;20185;-70
2023/10/03 00:09:23;;;;;;;70.75;34.72;;;18.20;99.90;;;;;;4898990;29;20241;-71
2023/10/03 00:11:49;;;;;;;74.30;35.47;;;18.20;99.90;;;;;;4899108;29;20189;-72
2023/10/03 00:14:15;;;;;;;74.90;36.40;;;18.20;99.90;;;;;;4899498;29;20200;-73
2023/10/03 00:16:41;;;;;;;75.20;35.30;;;18.20;99.90;;;;;;4898760;29;20497;-72
2023/10/03 00:19:07;;;;;;;69.88;36.20;;;18.20;99.90;;;;;;4899052;29;20200;-74
2023/10/03 00:21:34;;;;;;;72.07;37.15;;;18.20;99.90;;;;;;4899248;29;20267;-74
2023/10/03 00:24:01;;;;;;;72.47;34.85;;;18.20;99.90;;;;;;4899102;29;20205;-70
2023/10/03 00:26:28;;;;;;;68.90;35.58;;;18.20;99.90;;;;;;4898690;29;20204;-70
2023/10/03 00:28:56;;;;;;;71.10;35.13;;;18.20;99.90;;;;;;4899112;29;20180;-72
2023/10/03 00:31:23;;;;;;;68.78;36.03;;;18.20;99.90;;;;;;4897904;29;20204;-71
2023/10/03 00:33:49;;;;;;;75.75;36.17;;;18.20;99.90;;;;;;4898861;29;20201;-71
2023/10/03 00:36:23;;;;;;;74.05;34.83;;;18.10;99.90;;;;;;4898535;29;20201;-71
2023/10/03 00:38:53;;;;;;;72.45;35.13;;;18.10;99.90;;;;;;4897301;29;20185;-71
2023/10/03 00:41:19;;;;;;;73.90;35.13;;;18.20;99.90;;;;;;4895868;29;20208;-70
2023/10/03 00:43:53;;;;;;;71.38;35.97;;;18.10;99.90;;;;;;4898724;29;20616;-71
2023/10/03 00:46:19;;;;;;;70.40;34.17;;;18.10;99.90;;;;;;4897721;29;20196;-69
2023/10/03 00:48:47;;;;;;;65.97;35.13;;;18.10;99.90;;;;;;4897915;29;20889;-69
2023/10/03 00:51:14;;;;;;;74.93;34.17;;;18.10;99.90;;;;;;4897207;29;20193;-71
2023/10/03 00:53:43;;;;;;;74.07;35.65;;;18.10;99.90;;;;;;4898048;29;20189;-70
2023/10/03 00:56:11;;;;;;;67.25;34.60;;;18.00;99.90;;;;;;4898876;29;20250;-70
2023/10/03 00:58:38;;;;;;;67.60;34.47;;;18.00;99.90;;;;;;4896555;29;20203;-70
2023/10/03 01:01:03;;;;;;;68.20;34.55;;;18.00;99.90;;;;;;4897983;29;20687;-71
2023/10/03 01:03:37;;;;;;;67.70;34.30;;;18.00;99.90;;;;;;4897110;29;20196;-71
2023/10/03 01:06:09;;;;;;;71.43;34.85;;;18.00;99.90;;;;;;4897342;29;20252;-71
2023/10/03 01:08:43;;;;;;;68.15;33.65;;;18.00;99.90;;;;;;4896929;29;20652;-71
2023/10/03 01:11:20;;;;;;;71.43;34.53;;;18.00;99.90;;;;;;4897975;29;20200;-71
2023/10/03 01:13:58;;;;;;;78.43;34.03;;;18.00;99.90;;;;;;4895443;29;20223;-70
2023/10/03 01:16:34;;;;;;;66.18;34.75;;;18.00;99.90;;;;;;4896333;29;20212;-71
2023/10/03 01:21:47;;;;;;;66.72;35.45;;;17.90;99.90;;;;;;4887243;29;20208;-70
2023/10/03 01:24:15;;;;;;;75.35;34.42;;;17.90;99.90;;;;;;4897258;29;20210;-70
2023/10/03 01:26:41;;;;;;;67.50;31.75;;;17.90;99.90;;;;;;4896712;29;20199;-70
2023/10/03 01:29:07;;;;;;;64.55;32.22;;;17.90;99.90;;;;;;4896779;29;20203;-70
2023/10/03 01:31:33;;;;;;;63.88;31.00;;;17.90;99.90;;;;;;4897927;29;20291;-72
2023/10/03 01:34:01;;;;;;;61.38;30.52;;;17.90;99.90;;;;;;4895003;29;20192;-71
2023/10/03 01:36:29;;;;;;;64.30;31.02;;;17.90;99.90;;;;;;4895003;29;20199;-70
2023/10/03 01:38:55;;;;;;;57.05;29.98;;;17.90;99.90;;;;;;4895997;29;20188;-70
2023/10/03 01:41:21;;;;;;;62.67;32.03;;;17.80;99.90;;;;;;4896625;29;20216;-70
2023/10/03 01:43:48;;;;;;;64.25;29.80;;;17.90;99.90;;;;;;4897505;29;20256;-70
2023/10/03 01:46:14;;;;;;;61.83;30.33;;;17.90;99.90;;;;;;4896265;29;20212;-70
2023/10/03 01:48:41;;;;;;;61.35;28.85;;;17.90;99.90;;;;;;4880663;29;20231;-71
2023/10/03 01:51:08;;;;;;;62.13;29.65;;;17.90;99.90;;;;;;4896047;29;20189;-70
2023/10/03 01:53:35;;;;;;;60.67;30.35;;;17.90;99.90;;;;;;4895295;29;20205;-70
2023/10/03 01:56:03;;;;;;;62.97;29.02;;;17.90;99.90;;;;;;4895465;29;20197;-70
2023/10/03 01:58:30;;;;;;;56.97;28.23;;;17.90;99.90;;;;;;4896051;29;20219;-69
2023/10/03 02:00:56;;;;;;;58.80;28.00;;;17.90;99.90;;;;;;4896131;29;20216;-71
2023/10/03 02:03:23;;;;;;;55.88;27.20;;;17.90;99.90;;;;;;4897074;29;20332;-71
2023/10/03 02:05:49;;;;;;;66.75;28.10;;;17.90;99.90;;;;;;4896687;29;20207;-71
2023/10/03 02:08:17;;;;;;;56.58;27.05;;;17.90;99.90;;;;;;4895784;29;20188;-70
2023/10/03 02:10:47;;;;;;;53.83;26.27;;;17.90;99.90;;;;;;4895813;29;20708;-70
2023/10/03 02:13:14;;;;;;;52.53;25.42;;;17.90;99.90;;;;;;4895589;29;20663;-70
2023/10/03 02:15:44;;;;;;;56.13;26.25;;;17.90;99.90;;;;;;4896008;29;20196;-71
2023/10/03 02:18:18;;;;;;;52.17;24.55;;;17.90;99.90;;;;;;4894762;29;20185;-70
2023/10/03 02:20:53;;;;;;;50.67;25.60;;;17.90;99.90;;;;;;4895575;29;20681;-70
2023/10/03 02:23:23;;;;;;;50.83;24.27;;;17.90;99.90;;;;;;4884316;29;20204;-71
2023/10/03 02:25:51;;;;;;;53.03;23.77;;;17.90;99.90;;;;;;4894287;29;20208;-72
2023/10/03 02:28:18;;;;;;;51.40;24.27;;;18.00;99.90;;;;;;4895176;29;20192;-69
2023/10/03 02:30:44;;;;;;;55.05;23.63;;;18.00;99.90;;;;;;4896398;29;20263;-70
2023/10/03 02:33:12;;;;;;;45.78;21.63;;;18.00;99.90;;;;;;4896490;29;20197;-71
2023/10/03 02:35:42;;;;;;;45.15;22.88;;;18.00;99.90;;;;;;4891211;29;20335;-72
2023/10/03 02:38:14;;;;;;;48.47;22.48;;;18.00;99.90;;;;;;4894427;29;20188;-71
2023/10/03 02:40:41;;;;;;;45.70;22.10;;;18.00;99.90;;;;;;4895182;29;20789;-70
2023/10/03 02:43:10;;;;;;;49.00;22.50;;;18.00;99.90;;;;;;4895206;29;20530;-70
2023/10/03 02:45:37;;;;;;;45.85;22.77;;;18.00;99.90;;;;;;4894901;29;20660;-70
2023/10/03 02:48:14;;;;;;;46.75;23.30;;;18.00;99.90;;;;;;4895476;29;20200;-70
2023/10/03 02:50:42;;;;;;;46.28;22.52;;;18.00;99.90;;;;;;4895356;29;20204;-71
2023/10/03 02:53:23;;;;;;;52.85;21.88;;;18.10;99.90;;;;;;4896768;29;20700;-71
2023/10/03 02:55:54;;;;;;;43.60;22.10;;;18.10;99.90;;;;;;4885565;29;20201;-71
2023/10/03 02:58:20;;;;;;;48.28;22.92;;;18.10;99.90;;;;;;4895637;29;20188;-72
2023/10/03 03:00:56;;;;;;;44.78;21.63;;;18.10;99.90;;;;;;4895413;29;20219;-69
2023/10/03 03:03:29;;;;;;;47.17;20.90;;;18.20;99.90;;;;;;4895207;29;20191;-70
2023/10/03 03:05:57;;;;;;;45.22;21.38;;;18.20;99.90;;;;;;4894628;29;20712;-72
2023/10/03 03:08:28;;;;;;;45.55;21.00;;;18.20;99.90;;;;;;4894883;29;20193;-71
2023/10/03 03:10:57;;;;;;;49.67;21.98;;;18.20;99.90;;;;;;4895010;29;20236;-71
2023/10/03 03:13:25;;;;;;;48.58;20.90;;;18.30;99.90;;;;;;4894120;29;20204;-70
2023/10/03 03:15:57;;;;;;;46.33;21.50;;;18.30;99.90;;;;;;4877135;29;20254;-70
2023/10/03 03:18:25;;;;;;;53.17;21.85;;;18.30;99.90;;;;;;4895873;29;20200;-71
2023/10/03 03:20:57;;;;;;;41.55;20.10;;;18.40;99.90;;;;;;4895765;29;20220;-72
2023/10/03 03:23:31;;;;;;;49.75;21.27;;;18.40;99.90;;;;;;4894806;29;20208;-70
2023/10/03 03:28:44;;;;;;;43.85;21.17;;;18.40;99.90;;;;;;4895833;29;20278;-70
2023/10/03 03:31:22;;;;;;;40.85;20.15;;;18.50;99.90;;;;;;4896205;29;20672;-70
2023/10/03 03:33:51;;;;;;;43.60;20.77;;;18.50;99.90;;;;;;4894544;29;20289;-71
2023/10/03 03:36:22;;;;;;;43.25;19.45;;;18.60;99.90;;;;;;4895718;29;20231;-71
2023/10/03 03:38:49;;;;;;;45.15;19.55;;;18.50;99.90;;;;;;4895732;29;20787;-69
2023/10/03 03:41:15;;;;;;;44.03;19.95;;;18.50;99.90;;;;;;4896191;29;20248;-70
2023/10/03 03:43:42;;;;;;;40.75;19.48;;;18.60;99.90;;;;;;4896123;29;20244;-71
2023/10/03 03:46:09;;;;;;;50.13;19.98;;;18.50;99.90;;;;;;4894974;29;20184;-71
2023/10/03 03:48:36;;;;;;;36.92;18.35;;;18.50;99.90;;;;;;4895472;29;20197;-71
2023/10/03 03:51:06;;;;;;;42.35;19.63;;;18.60;99.90;;;;;;4896260;29;20668;-71
2023/10/03 03:53:33;;;;;;;38.95;19.48;;;18.60;99.90;;;;;;4895978;29;20216;-70
2023/10/03 03:56:00;;;;;;;40.80;19.48;;;18.60;99.90;;;;;;4895676;29;20192;-70
2023/10/03 03:58:26;;;;;;;41.03;19.40;;;18.50;99.90;;;;;;4895055;29;20283;-70
2023/10/03 04:00:52;;;;;;;41.13;19.15;;;18.60;99.90;;;;;;4898393;29;20712;-71
2023/10/03 04:03:19;;;;;;;39.80;19.13;;;18.60;99.90;;;;;;4899224;29;20196;-71
2023/10/03 04:05:47;;;;;;;44.25;18.15;;;18.60;99.90;;;;;;4899098;29;20192;-71
2023/10/03 04:08:13;;;;;;;44.88;19.52;;;18.60;99.90;;;;;;4895731;29;20188;-70
2023/10/03 04:10:39;;;;;;;44.63;19.73;;;18.60;99.90;;;;;;4898500;29;21474;-71
2023/10/03 04:13:09;;;;;;;40.50;19.23;;;18.60;99.90;;;;;;4897638;29;20193;-71
2023/10/03 04:15:40;;;;;;;39.03;19.20;;;18.70;99.90;;;;;;4898279;29;20653;-71
2023/10/03 04:18:07;;;;;;;38.08;18.40;;;18.60;99.90;;;;;;4898914;29;20196;-71
2023/10/03 04:20:35;;;;;;;40.95;18.08;;;18.60;99.90;;;;;;4898881;29;20315;-71
2023/10/03 04:23:03;;;;;;;41.72;18.67;;;18.60;99.90;;;;;;4894555;29;20324;-71
2023/10/03 04:25:32;;;;;;;39.65;18.92;;;18.60;99.90;;;;;;4893210;29;20199;-72
2023/10/03 04:27:58;;;;;;;38.33;17.55;;;18.60;99.90;;;;;;4898999;29;20193;-71
2023/10/03 04:30:26;;;;;;;45.70;19.33;;;18.60;99.90;;;;;;4898865;29;20188;-71
2023/10/03 04:32:54;;;;;;;39.70;18.23;;;18.60;99.90;;;;;;4898300;29;20195;-70
2023/10/03 04:35:22;;;;;;;44.80;19.20;;;18.70;99.90;;;;;;4898584;29;20413;-71
2023/10/03 04:37:51;;;;;;;38.70;18.33;;;18.60;99.90;;;;;;4898175;29;20192;-71
2023/10/03 04:40:22;;;;;;;40.90;19.08;;;18.70;99.90;;;;;;4898510;29;20271;-71
2023/10/03 04:42:49;;;;;;;37.83;17.58;;;18.70;99.90;;;;;;4899029;29;20184;-71
2023/10/03 04:45:18;;;;;;;42.42;18.50;;;18.70;99.90;;;;;;4898353;29;20192;-70
2023/10/03 04:47:45;;;;;;;43.75;18.20;;;18.70;99.90;;;;;;4894984;29;20196;-70
2023/10/03 04:50:18;;;;;;;42.75;17.52;;;18.80;99.90;;;;;;4893036;29;20575;-71
2023/10/03 04:52:49;;;;;;;41.45;18.48;;;18.80;99.90;;;;;;4893515;29;20303;-72
2023/10/03 04:55:16;;;;;;;40.50;18.65;;;18.90;99.90;;;;;;4890590;29;20205;-70
2023/10/03 04:57:50;;;;;;;44.20;18.23;;;18.90;99.90;;;;;;4883250;29;20206;-71
2023/10/03 05:00:21;;;;;;;38.95;17.75;;;19.00;99.90;;;;;;4891677;29;20225;-72
2023/10/03 05:02:48;;;;;;;38.88;16.73;;;19.10;99.90;;;;;;4889463;29;20190;-71
2023/10/03 05:05:23;;;;;;;43.30;18.25;;;19.10;99.90;;;;;;4887980;29;20196;-71
2023/10/03 05:07:56;;;;;;;33.88;17.38;;;19.20;99.90;;;;;;4889063;29;20188;-72
2023/10/03 05:10:23;;;;;;;45.92;17.40;;;19.30;99.90;;;;;;4888254;29;20233;-73
2023/10/03 05:12:58;;;;;;;37.83;17.02;;;19.30;99.90;;;;;;4893386;29;20240;-73
2023/10/03 05:15:26;;;;;;;39.80;17.20;;;19.30;99.90;;;;;;4895479;29;20195;-73
2023/10/03 05:17:54;;;;;;;42.05;17.40;;;19.40;99.90;;;;;;4897469;29;20235;-72
2023/10/03 05:20:20;;;;;;;39.38;17.40;;;19.40;99.90;;;;;;4898206;29;20649;-71
2023/10/03 05:22:47;;;;;;;39.22;17.65;;;19.40;99.90;;;;;;4897482;29;20224;-71
2023/10/03 05:25:18;;;;;;;37.80;16.90;;;19.50;99.90;;;;;;4897414;29;20225;-72
2023/10/03 05:27:49;;;;;;;37.78;16.58;;;19.50;99.90;;;;;;4897295;29;20185;-72
2023/10/03 05:30:15;;;;;;;34.38;16.17;;;19.50;99.90;;;;;;4874504;29;20244;-73
2023/10/03 05:32:46;;;;;;;38.80;16.33;;;19.60;99.90;;;;;;4896331;29;20227;-71
2023/10/03 05:35:12;;;;;;;37.03;17.13;;;19.60;99.90;;;;;;4893073;29;20191;-72
2023/10/03 05:37:42;;;;;;;42.55;16.40;;;19.60;99.90;;;;;;4889730;29;20668;-70
2023/10/03 05:40:12;;;;;;;35.10;16.35;;;19.60;99.90;;;;;;4896305;29;20295;-72
2023/10/03 05:42:45;;;;;;;50.47;17.20;;;19.70;99.90;;;;;;4897713;29;20244;-72
2023/10/03 05:45:15;;;;;;;36.13;17.75;;;19.70;99.90;;;;;;4897516;29;20184;-73
2023/10/03 05:47:44;;;;;;;36.67;16.33;;;19.70;99.90;;;;;;4897374;29;20188;-72
2023/10/03 05:50:17;;;;;;;43.50;17.77;;;19.70;99.90;;;;;;4896945;29;20203;-73
2023/10/03 05:52:44;;;;;;;40.40;17.05;;;19.80;99.90;;;;;;4895793;29;20243;-72
2023/10/03 05:55:10;;;;;;;42.58;16.88;;;19.80;99.90;;;;;;4896406;29;20240;-73
2023/10/03 05:57:39;;;;;;;42.00;18.55;;;19.80;99.90;;;;;;4895460;29;20305;-73
2023/10/03 06:00:09;;;;;;;41.20;17.90;;;19.80;99.90;;;;;;4895105;29;20224;-73
2023/10/03 06:02:38;;;;;;;46.33;17.85;;;19.80;99.90;;;;;;4890742;29;20221;-69
2023/10/03 06:05:06;;;;;;;49.45;18.67;;;19.80;99.90;;;;;;4895205;29;20185;-71
2023/10/03 06:07:32;;;;;;;44.28;18.15;;;19.80;99.90;;;;;;4910812;29;20679;-71
2023/10/03 06:09:58;;;;;;;45.25;18.42;;;19.90;99.90;;;;;;4896225;29;20315;-71
2023/10/03 06:12:24;;;;;;;42.28;18.05;;;19.90;99.90;;;;;;4893168;29;20189;-71
2023/10/03 06:14:50;;;;;;;40.10;18.70;;;19.90;99.90;;;;;;4895504;29;20188;-73
2023/10/03 06:17:17;;;;;;;50.63;18.92;;;19.90;99.90;;;;;;4895648;29;20200;-73
2023/10/03 06:19:44;;;;;;;41.20;17.90;;;19.90;99.90;;;;;;4894841;29;20199;-70
2023/10/03 06:22:12;;;;;;;44.40;19.50;;;19.90;99.90;;;;;;4895003;29;20208;-68
2023/10/03 06:24:41;;;;;;;44.63;18.17;;;19.90;99.90;;;;;;4894596;29;20243;-73
2023/10/03 06:27:09;;;;;;;39.50;17.33;;;19.90;99.90;;;;;;4895592;29;20200;-71
2023/10/03 06:29:41;;;;;;;46.72;17.77;;;20.00;99.90;;;;;;4896108;29;20266;-73
2023/10/03 06:32:07;;;;;;;42.90;17.50;;;20.00;99.90;;;;;;4895131;29;20192;-72
2023/10/03 06:34:33;;;;;;;42.97;17.15;;;20.00;99.90;;;;;;4893792;29;20203;-75
2023/10/03 06:37:00;;;;;;;41.88;17.52;;;20.00;99.90;;;;;;4893869;29;20715;-71
2023/10/03 06:39:26;;;;;;;43.40;16.58;;;20.00;99.90;;;;;;4893660;29;20241;-75
2023/10/03 06:41:55;;;;;;;40.28;16.58;;;20.00;99.90;;;;;;4893862;29;20236;-72
2023/10/03 06:44:22;;;;;;;47.17;15.55;;;20.00;99.90;;;;;;4898454;29;20685;-71
2023/10/03 06:46:48;;;;;;;40.53;15.55;;;20.00;99.90;;;;;;4896341;29;20204;-72
2023/10/03 06:49:17;;;;;;;42.17;14.75;;;19.90;99.90;;;;;;4896113;29;20189;-71
2023/10/03 06:51:44;;;;;;;37.85;14.95;;;19.90;99.90;;;;;;4894802;29;20236;-70
2023/10/03 06:54:10;;;;;;;41.25;14.65;;;19.90;99.90;;;;;;4894717;29;20195;-71
2023/10/03 06:56:36;;;;;;;41.72;13.65;;;19.90;99.90;;;;;;4896272;29;20189;-70
2023/10/03 06:59:04;;;;;;;28.17;12.25;;;19.90;99.90;;;;;;4896271;29;20239;-71
2023/10/03 07:01:30;;;;;;;25.42;10.95;;;19.90;99.90;;;;;;4892445;29;20216;-73
2023/10/03 07:03:57;;;;;;;31.38;12.60;;;19.80;99.90;;;;;;4894460;29;20208;-71
2023/10/03 07:06:24;;;;;;;31.92;11.73;;;19.70;99.90;;;;;;4894195;29;20200;-70
2023/10/03 07:08:51;;;;;;;31.08;11.30;;;19.70;99.90;;;;;;4894495;29;20268;-70
2023/10/03 07:11:17;;;;;;;26.80;11.45;;;19.60;99.90;;;;;;4895053;29;20709;-70
2023/10/03 07:13:44;;;;;;;25.77;11.30;;;19.50;99.90;;;;;;4910359;29;20200;-73
2023/10/03 07:16:11;;;;;;;29.35;10.60;;;19.40;99.90;;;;;;4891279;29;20196;-71
2023/10/03 07:18:39;;;;;;;29.13;10.35;;;19.40;99.90;;;;;;4894158;29;20201;-70
2023/10/03 07:21:05;;;;;;;22.02;9.60;;;19.30;99.90;;;;;;4895130;29;20731;-70
2023/10/03 07:23:31;;;;;;;25.15;10.32;;;19.20;99.90;;;;;;4895337;29;20284;-71
2023/10/03 07:25:57;;;;;;;28.25;11.20;;;19.20;99.90;;;;;;4894177;29;20224;-72
2023/10/03 07:28:23;;;;;;;24.63;10.50;;;19.10;99.90;;;;;;4894194;29;20236;-71
2023/10/03 07:30:49;;;;;;;29.73;11.07;;;19.10;99.90;;;;;;4892433;29;20188;-72
2023/10/03 07:33:15;;;;;;;36.90;11.93;;;19.00;99.90;;;;;;4894410;29;20193;-71
2023/10/03 07:35:43;;;;;;;30.75;12.15;;;19.00;99.90;;;;;;4896664;29;20574;-71
2023/10/03 07:38:10;;;;;;;37.10;12.38;;;19.00;99.90;;;;;;4897632;29;20185;-73
2023/10/03 07:40:38;;;;;;;30.88;10.25;;;19.00;99.90;;;;;;4920337;29;20271;-72
2023/10/03 07:43:12;;;;;;;32.00;9.90;;;18.90;99.90;;;;;;4897397;29;20208;-73
2023/10/03 07:45:38;;;;;;;28.60;8.63;;;19.00;99.90;;;;;;4897057;29;20279;-72
2023/10/03 07:48:06;;;;;;;25.45;8.55;;;18.90;99.90;;;;;;4897049;29;20193;-71
2023/10/03 07:50:38;;;;;;;30.08;8.63;;;18.80;99.90;;;;;;4896335;29;20181;-72
2023/10/03 07:53:05;;;;;;;29.42;8.18;;;18.80;99.90;;;;;;4899339;29;20665;-73
2023/10/03 07:55:35;;;;;;;32.83;7.60;;;18.70;99.90;;;;;;4898497;29;20189;-71
2023/10/03 07:58:01;;;;;;;20.27;6.30;;;18.70;99.90;;;;;;4897036;29;20610;-73
2023/10/03 08:00:27;;;;;;;22.88;6.57;;;18.60;99.90;;;;;;4898309;29;20632;-69
2023/10/03 08:02:53;;;;;;;15.93;5.45;;;18.60;99.90;;;;;;4897616;29;20218;-71
2023/10/03 08:05:20;;;;;;;19.02;5.38;;;18.60;99.90;;;;;;4881633;29;20197;-70
2023/10/03 08:07:49;;;;;;;18.63;4.80;;;18.50;99.90;;;;;;4897677;29;20193;-70
2023/10/03 08:10:16;;;;;;;14.57;4.00;;;18.40;99.90;;;;;;4899502;29;20708;-71
2023/10/03 08:12:44;;;;;;;15.75;3.95;;;18.40;99.90;;;;;;4897326;29;20188;-71
2023/10/03 08:15:19;;;;;;;15.20;4.05;;;18.30;99.90;;;;;;4898049;29;20196;-71
2023/10/03 08:17:49;;;;;;;17.58;4.00;;;18.20;99.90;;;;;;4898579;29;20188;-72
2023/10/03 08:20:18;;;;;;;15.63;3.35;;;18.20;99.90;;;;;;4898286;29;20196;-72
2023/10/03 08:22:51;;;;;;;11.57;3.05;;;18.10;99.90;;;;;;4896426;29;20224;-73
2023/10/03 08:25:18;;;;;;;12.27;3.00;;;18.10;99.90;;;;;;4898610;29;20197;-72
2023/10/03 08:27:46;;;;;;;9.82;2.50;;;18.00;99.90;;;;;;4898076;29;20201;-72
2023/10/03 08:30:25;;;;;;;11.90;2.50;;;18.00;99.90;;;;;;4898036;29;20193;-72
2023/10/03 08:33:00;;;;;;;10.45;2.05;;;17.90;99.90;;;;;;4911021;29;20180;-73
2023/10/03 08:35:37;;;;;;;13.88;2.47;;;17.80;99.90;;;;;;4889371;29;20192;-73
2023/10/03 08:38:07;;;;;;;12.77;2.40;;;17.80;99.90;;;;;;4899034;29;20224;-72
2023/10/03 08:40:42;;;;;;;13.52;2.45;;;17.80;99.90;;;;;;4894475;29;20332;-72
2023/10/03 08:43:12;;;;;;;7.85;1.83;;;17.80;99.90;;;;;;4898076;29;20218;-71
2023/10/03 08:45:43;;;;;;;9.18;1.70;;;17.90;99.90;;;;;;4896855;29;20672;-71
2023/10/03 08:48:10;;;;;;;14.35;2.15;;;17.80;99.90;;;;;;4898401;29;20188;-71
2023/10/03 08:50:52;;;;;;;11.00;2.13;;;17.90;99.90;;;;;;4912259;29;20195;-70
2023/10/03 08:53:26;;;;;;;7.00;2.13;;;17.90;99.90;;;;;;4896792;29;20340;-71
2023/10/03 08:56:01;;;;;;;8.95;1.88;;;17.80;99.90;;;;;;4896857;29;20185;-69
2023/10/03 08:58:28;;;;;;;9.30;1.65;;;17.70;99.90;;;;;;4896445;29;20363;-69
2023/10/03 09:01:03;;;;;;;8.07;1.65;;;17.60;99.90;;;;;;4903547;29;20227;-71
2023/10/03 09:03:47;;;;;;;3.60;1.38;;;17.50;99.90;;;;;;4902052;29;20192;-72
2023/10/03 09:06:19;;;;;;;4.65;1.30;;;17.40;99.90;;;;;;4896651;29;20221;-69
2023/10/03 09:08:51;;;;;;;8.60;1.42;;;17.20;99.90;;;;;;4897034;29;20184;-72
2023/10/03 09:11:18;;;;;;;6.40;1.92;;;17.10;99.90;;;;;;4897760;29;20268;-71
2023/10/03 09:13:49;;;;;;;9.73;1.48;;;17.00;99.90;;;;;;4897475;29;20240;-71
2023/10/03 09:16:15;;;;;;;8.48;1.13;;;16.90;99.90;;;;;;4880426;29;20197;-72
2023/10/03 09:18:41;;;;;;;10.52;1.75;;;16.80;99.90;;;;;;4897692;29;20224;-71
2023/10/03 09:21:23;;;;;;;5.55;1.25;;;16.80;99.90;;;;;;4897285;29;20212;-71
2023/10/03 09:24:01;;;;;;;11.30;1.95;;;16.70;99.90;;;;;;4897725;29;20248;-72
2023/10/03 09:26:45;;;;;;;9.52;1.70;;;16.70;99.90;;;;;;4895463;29;20185;-72
2023/10/03 09:29:32;;;;;;;6.97;1.38;;;16.70;99.90;;;;;;4896623;29;20188;-71
2023/10/03 09:32:12;;;;;;;4.82;1.20;;;16.80;99.90;;;;;;4895902;29;20267;-71
2023/10/03 09:34:43;;;;;;;4.03;0.85;;;16.70;99.90;;;;;;4896897;29;20192;-71
2023/10/03 09:37:10;;;;;;;2.50;0.80;;;16.80;99.90;;;;;;4880317;29;20262;-70
2023/10/03 09:39:47;;;;;;;7.38;1.20;;;16.80;99.90;;;;;;4897006;29;20195;-72
2023/10/03 09:42:18;;;;;;;4.18;1.02;;;16.80;99.90;;;;;;4895344;29;20231;-73
2023/10/03 09:44:48;;;;;;;6.13;1.08;;;16.80;99.90;;;;;;4896147;29;20196;-72
2023/10/03 09:47:18;;;;;;;5.75;1.00;;;16.80;99.90;;;;;;4895686;29;20240;-71
2023/10/03 09:49:47;;;;;;;6.07;1.08;;;16.80;99.90;;;;;;4896731;29;20192;-72
2023/10/03 09:52:24;;;;;;;1.73;0.90;;;16.70;99.90;;;;;;4897197;29;20264;-72
2023/10/03 09:54:54;;;;;;;5.88;1.50;;;16.60;99.90;;;;;;4896495;29;20248;-72
2023/10/03 09:57:32;;;;;;;2.90;1.00;;;16.50;99.90;;;;;;4894484;29;20188;-71
2023/10/03 09:59:58;;;;;;;2.25;0.80;;;16.50;99.90;;;;;;4892396;29;20176;-73
2023/10/03 10:02:46;;;;;;;3.15;0.90;;;16.50;99.90;;;;;;4887876;29;20225;-73
2023/10/03 10:05:21;;;;;;;5.30;0.90;;;16.40;99.90;;;;;;4895842;29;20634;-72
2023/10/03 10:08:08;;;;;;;2.72;0.70;;;16.50;99.90;;;;;;4893666;29;20271;-73
2023/10/03 10:10:35;;;;;;;2.95;0.80;;;16.50;99.90;;;;;;4909650;29;20273;-73
2023/10/03 10:13:12;;;;;;;3.30;0.90;;;16.50;99.90;;;;;;4893948;29;20188;-70
2023/10/03 10:16:00;;;;;;;2.88;1.17;;;16.50;99.90;;;;;;4896008;29;20188;-71
2023/10/03 10:18:46;;;;;;;3.45;0.90;;;16.50;99.90;;;;;;4884686;29;20324;-72
2023/10/03 10:21:25;;;;;;;4.35;0.95;;;16.40;99.90;;;;;;4895232;29;20315;-72
2023/10/03 10:24:16;;;;;;;4.05;0.95;;;16.20;99.90;;;;;;4896619;29;20205;-71
2023/10/03 10:26:48;;;;;;;9.27;1.50;;;16.10;99.90;;;;;;4888886;29;20185;-70
2023/10/03 10:29:19;;;;;;;6.00;1.40;;;16.10;99.90;;;;;;4881702;29;20560;-74
2023/10/03 10:31:58;;;;;;;9.15;1.83;;;16.10;99.90;;;;;;4895149;29;20288;-73
2023/10/03 10:34:27;;;;;;;8.73;1.73;;;16.10;99.90;;;;;;4895491;29;20194;-72
2023/10/03 10:37:03;;;;;;;7.13;1.60;;;16.10;99.90;;;;;;4895795;29;20288;-72
2023/10/03 10:39:54;;;;;;;9.23;1.73;;;16.10;99.90;;;;;;4910489;29;20220;-72
2023/10/03 10:42:24;;;;;;;5.80;1.77;;;16.10;99.90;;;;;;4885023;29;20317;-72
2023/10/03 10:45:13;;;;;;;6.80;2.10;;;16.20;99.90;;;;;;4894096;29;20203;-73
2023/10/03 10:47:49;;;;;;;13.75;2.35;;;16.30;99.90;;;;;;4894814;29;20199;-72
2023/10/03 10:50:17;;;;;;;8.10;2.15;;;16.40;99.90;;;;;;4894704;29;20298;-72
2023/10/03 10:53:02;;;;;;;7.82;2.55;;;16.40;99.90;;;;;;4896192;29;20193;-73
2023/10/03 10:55:28;;;;;;;9.30;2.60;;;16.50;99.90;;;;;;4887348;29;20177;-72
2023/10/03 10:58:09;;;;;;;11.02;2.60;;;16.50;99.90;;;;;;4895493;29;20200;-70
2023/10/03 11:00:36;;;;;;;9.20;2.75;;;16.60;99.90;;;;;;4895236;29;20188;-71
2023/10/03 11:03:03;;;;;;;9.32;2.85;;;16.60;99.90;;;;;;4896102;29;20656;-71
2023/10/03 11:05:49;;;;;;;8.43;2.53;;;16.60;99.90;;;;;;4895526;29;20625;-71
2023/10/03 11:08:17;;;;;;;14.25;3.00;;;16.60;99.90;;;;;;4893755;29;20244;-71
2023/10/03 11:10:56;;;;;;;10.55;2.58;;;16.60;99.90;;;;;;4899133;29;20232;-72
2023/10/03 11:13:23;;;;;;;9.77;2.90;;;16.60;99.90;;;;;;4900095;29;20199;-71
2023/10/03 11:15:54;;;;;;;8.77;3.05;;;16.60;99.90;;;;;;4914408;29;20172;-71
2023/10/03 11:18:28;;;;;;;10.50;3.08;;;16.60;99.90;;;;;;4899008;29;20221;-72
2023/10/03 11:20:55;;;;;;;13.18;3.10;;;16.60;99.90;;;;;;4898785;29;20216;-72
2023/10/03 11:23:23;;;;;;;16.85;3.47;;;16.70;99.90;;;;;;4898997;29;20723;-71
2023/10/03 11:25:57;;;;;;;11.52;3.30;;;16.70;99.90;;;;;;4913934;29;20219;-69
2023/10/03 11:28:28;;;;;;;12.65;3.28;;;16.70;99.90;;;;;;4900041;29;20280;-72
2023/10/03 11:31:08;;;;;;;10.13;3.20;;;16.70;99.90;;;;;;4899573;29;20259;-71
2023/10/03 11:33:45;;;;;;;11.25;3.15;;;16.70;99.90;;;;;;4888664;29;20261;-71
2023/10/03 11:36:13;;;;;;;12.75;3.08;;;16.70;99.90;;;;;;4897917;29;20188;-70
2023/10/03 11:38:50;;;;;;;10.82;3.00;;;16.80;99.90;;;;;;4897838;29;20299;-73
2023/10/03 11:41:29;;;;;;;9.00;2.50;;;16.80;99.90;;;;;;4887105;29;20307;-71
2023/10/03 11:43:55;;;;;;;11.07;3.22;;;16.90;99.90;;;;;;4897302;29;20208;-72
2023/10/03 11:46:21;;;;;;;11.02;2.90;;;17.00;99.90;;;;;;4898125;29;20224;-72
2023/10/03 11:48:56;;;;;;;10.27;2.50;;;17.00;99.90;;;;;;4898318;29;20209;-72
2023/10/03 11:51:22;;;;;;;9.43;3.10;;;17.10;99.90;;;;;;4899263;29;20195;-71
2023/10/03 11:53:49;;;;;;;10.82;2.70;;;17.10;99.90;;;;;;4913561;29;20193;-72
2023/10/03 11:56:17;;;;;;;12.65;2.83;;;17.10;99.90;;;;;;4898971;29;20275;-71
2023/10/03 11:58:43;;;;;;;10.90;3.03;;;17.20;99.90;;;;;;4897737;29;20549;-72
2023/10/03 12:01:09;;;;;;;7.97;2.75;;;17.20;99.90;;;;;;4898760;29;20299;-72
2023/10/03 12:03:37;;;;;;;11.48;2.90;;;17.20;99.90;;;;;;4898665;29;20256;-71
2023/10/03 12:06:04;;;;;;;13.20;2.58;;;17.20;99.90;;;;;;4898331;29;20256;-71
2023/10/03 12:08:36;;;;;;;11.25;3.33;;;17.30;99.90;;;;;;4897130;29;20234;-70
2023/10/03 12:11:05;;;;;;;9.10;2.70;;;17.20;99.90;;;;;;4897352;29;20244;-70
2023/10/03 12:13:31;;;;;;;12.48;2.78;;;17.10;99.90;;;;;;4898945;29;20185;-70
2023/10/03 12:15:57;;;;;;;11.88;2.83;;;16.90;99.90;;;;;;4898894;29;20201;-73
2023/10/03 12:18:23;;;;;;;7.70;2.85;;;16.50;99.90;;;;;;4898163;29;20276;-72
2023/10/03 12:20:49;;;;;;;17.15;3.03;;;16.20;99.90;;;;;;4897023;29;20256;-77
2023/10/03 12:23:15;;;;;;;7.35;2.45;;;16.00;99.90;;;;;;4895762;29;20633;-71
2023/10/03 12:25:41;;;;;;;7.65;2.70;;;15.80;99.90;;;;;;4891558;29;20193;-72
2023/10/03 12:28:09;;;;;;;10.55;2.88;;;15.70;99.90;;;;;;4898479;29;20280;-71
2023/10/03 12:30:35;;;;;;;12.75;3.13;;;15.60;99.90;;;;;;4878669;29;20193;-71
2023/10/03 12:33:01;;;;;;;12.90;3.33;;;15.60;99.90;;;;;;4897432;29;20206;-71
2023/10/03 12:35:27;;;;;;;15.32;3.20;;;15.70;99.90;;;;;;4896398;29;20196;-69
2023/10/03 12:37:58;;;;;;;15.25;2.90;;;15.80;99.90;;;;;;4898226;29;20188;-65
2023/10/03 12:40:27;;;;;;;10.88;3.13;;;15.90;99.90;;;;;;4895917;29;20566;-66
2023/10/03 12:42:53;;;;;;;13.07;3.20;;;16.00;99.90;;;;;;4895830;29;20288;-67
2023/10/03 12:45:24;;;;;;;10.73;2.95;;;16.10;99.90;;;;;;4897867;29;20197;-66
2023/10/03 12:47:54;;;;;;;9.52;3.20;;;16.20;99.90;;;;;;4888340;29;20585;-66
2023/10/03 12:50:26;;;;;;;13.80;3.53;;;16.30;99.90;;;;;;4896502;29;20216;-70
2023/10/03 12:52:58;;;;;;;11.60;3.15;;;16.40;99.90;;;;;;4895280;29;20196;-70